Time;durP1;ratioP1;P1;durP2;ratioP2;P2;SDS_P1;SDS_P2;PMS_P1;PMS_P2;Temp;Humidity;BMP_temperature;BMP_pressure;BME280_temperature;BME280_humidity;BME280_pressure;Samples;Min_cycle;Max_cycle;Signal;HPM_P1;HPM_P2
2021/12/16 00:04:10;;;;;;;226.97;50.93;;;7.20;81.20;;;;;;4981361;28;20230;-91
2021/12/16 00:09:02;;;;;;;191.50;44.90;;;7.20;81.20;;;;;;5002652;28;20623;-90
2021/12/16 00:31:02;;;;;;;237.43;52.27;;;7.00;81.60;;;;;;5000477;28;20045;-89
2021/12/16 00:33:18;;;;;;;224.90;46.37;;;7.00;81.60;;;;;;5000416;28;20049;-89
2021/12/16 00:35:50;;;;;;;252.70;51.90;;;6.90;81.70;;;;;;5000147;28;20085;-91
2021/12/16 00:38:17;;;;;;;200.23;45.30;;;6.90;81.80;;;;;;5000298;28;20365;-91
2021/12/16 00:40:43;;;;;;;217.70;47.40;;;6.90;81.80;;;;;;5001413;28;20086;-90
2021/12/16 00:43:33;;;;;;;261.03;51.30;;;6.90;81.90;;;;;;5000580;28;20023;-91
2021/12/16 00:48:59;;;;;;;283.98;51.33;;;6.90;81.90;;;;;;5008655;28;20036;-90
2021/12/16 00:54:13;;;;;;;220.37;43.23;;;6.90;81.90;;;;;;5010941;28;20098;-90
2021/12/16 00:56:50;;;;;;;282.97;52.67;;;6.90;81.80;;;;;;5006504;28;20025;-90
2021/12/16 00:59:18;;;;;;;278.83;48.40;;;6.90;81.80;;;;;;4998887;28;20018;-89
2021/12/16 01:01:56;;;;;;;261.90;48.73;;;6.90;81.90;;;;;;5001015;28;20084;-91
2021/12/16 01:33:28;;;;;;;240.57;48.27;;;6.90;81.90;;;;;;5001807;28;20128;-91
2021/12/16 01:45:37;;;;;;;179.17;44.40;;;7.10;81.60;;;;;;5000366;28;20443;-90
2021/12/16 01:59:04;;;;;;;193.70;48.73;;;7.10;81.60;;;;;;4998296;28;20042;-90
2021/12/16 02:01:33;;;;;;;157.40;41.57;;;7.10;81.60;;;;;;4996243;28;20073;-91
2021/12/16 02:04:12;;;;;;;155.13;43.67;;;7.00;81.70;;;;;;4998982;28;20027;-91
2021/12/16 02:06:57;;;;;;;184.00;48.67;;;7.00;81.80;;;;;;4986898;28;20022;-90
2021/12/16 02:09:33;;;;;;;142.63;39.17;;;7.00;81.80;;;;;;4993606;28;20022;-90
2021/12/16 02:12:52;;;;;;;178.10;46.72;;;7.00;81.80;;;;;;4998734;28;20113;-89
2021/12/16 02:38:47;;;;;;;220.27;44.13;;;6.90;82.10;;;;;;5001462;28;20042;-90
2021/12/16 02:41:15;;;;;;;225.17;45.03;;;6.90;82.10;;;;;;5002180;28;20077;-91
2021/12/16 02:44:07;;;;;;;202.43;44.90;;;6.90;82.10;;;;;;5005386;28;20096;-91
2021/12/16 02:49:18;;;;;;;163.50;40.10;;;6.90;82.10;;;;;;5007643;28;20068;-89
2021/12/16 02:51:44;;;;;;;;;;;6.90;82.20;;;;;;5007610;28;20030;-88
2021/12/16 02:54:10;;;;;;;136.77;37.70;;;6.90;82.30;;;;;;4998557;28;20319;-91
2021/12/16 02:56:36;;;;;;;;;;;7.00;82.00;;;;;;5006650;28;20030;-89
2021/12/16 02:59:04;;;;;;;148.02;38.35;;;6.90;82.10;;;;;;4995726;28;19910;-92
2021/12/16 03:01:38;;;;;;;91.13;27.37;;;7.00;82.00;;;;;;4995831;28;20030;-91
2021/12/16 03:04:07;;;;;;;143.17;41.23;;;6.90;82.10;;;;;;4993325;28;20081;-90
2021/12/16 03:06:34;;;;;;;127.33;38.40;;;6.90;82.20;;;;;;4998507;28;20043;-91
2021/12/16 03:09:02;;;;;;;129.77;38.87;;;6.90;82.30;;;;;;4998012;28;20475;-90
2021/12/16 03:11:44;;;;;;;172.45;48.40;;;6.90;82.30;;;;;;4995240;28;20038;-91
2021/12/16 03:17:00;;;;;;;140.30;42.20;;;7.00;82.30;;;;;;4998768;28;20069;-90
2021/12/16 03:19:46;;;;;;;146.57;43.30;;;7.00;82.40;;;;;;4997401;28;20023;-91
2021/12/16 03:22:23;;;;;;;142.90;42.28;;;7.00;82.30;;;;;;4997633;28;20034;-93
2021/12/16 03:37:55;;;;;;;114.47;31.83;;;7.00;82.40;;;;;;5000984;28;20045;-91
2021/12/16 03:40:22;;;;;;;160.73;39.90;;;7.00;82.30;;;;;;5001611;28;20069;-91
2021/12/16 03:42:57;;;;;;;143.27;39.17;;;7.00;82.40;;;;;;5000970;28;20030;-91
2021/12/16 03:48:58;;;;;;;161.43;38.07;;;7.00;82.50;;;;;;5002122;28;20093;-91
2021/12/16 03:51:44;;;;;;;181.87;41.20;;;7.00;82.50;;;;;;5002361;28;20443;-91
2021/12/16 03:54:18;;;;;;;191.52;44.42;;;7.00;82.40;;;;;;5002166;28;20033;-91
2021/12/16 03:56:48;;;;;;;190.10;39.42;;;7.10;82.40;;;;;;5001836;28;20081;-91
2021/12/16 03:59:18;;;;;;;199.40;39.60;;;7.00;82.50;;;;;;5001650;28;20029;-91
2021/12/16 04:01:44;;;;;;;203.77;39.50;;;7.10;82.50;;;;;;5001634;28;20403;-89
2021/12/16 04:04:10;;;;;;;177.07;38.80;;;7.00;82.50;;;;;;5001011;28;20375;-91
2021/12/16 04:06:36;;;;;;;;;;;7.10;82.50;;;;;;5001307;28;20114;-91
2021/12/16 04:09:06;;;;;;;143.13;32.97;;;7.10;82.60;;;;;;5001986;28;20109;-91
2021/12/16 04:11:39;;;;;;;211.20;42.10;;;7.10;82.30;;;;;;4997241;28;20047;-92
2021/12/16 04:14:06;;;;;;;154.43;35.27;;;7.10;82.50;;;;;;5000933;28;20444;-91
2021/12/16 04:16:45;;;;;;;194.57;37.53;;;7.00;82.60;;;;;;4998673;28;20042;-91
2021/12/16 04:19:13;;;;;;;147.47;29.43;;;7.00;82.60;;;;;;5001793;28;20040;-91
2021/12/16 04:21:43;;;;;;;187.63;38.00;;;7.00;82.70;;;;;;5000387;28;20034;-90
2021/12/16 04:24:10;;;;;;;303.60;44.22;;;7.10;82.70;;;;;;4999049;28;20110;-92
2021/12/16 04:26:37;;;;;;;145.63;29.37;;;7.00;82.70;;;;;;4999849;28;20039;-92
2021/12/16 04:29:04;;;;;;;258.80;42.37;;;7.00;82.80;;;;;;5002174;28;20037;-92
2021/12/16 04:31:30;;;;;;;212.43;37.63;;;7.00;82.80;;;;;;4986625;28;20448;-89
2021/12/16 04:33:56;;;;;;;254.20;41.03;;;7.00;82.90;;;;;;5001728;28;20511;-92
2021/12/16 04:36:22;;;;;;;;;;;7.00;82.90;;;;;;5002920;28;20034;-90
2021/12/16 04:38:48;;;;;;;210.63;36.83;;;7.00;82.90;;;;;;5001514;28;19914;-91
2021/12/16 04:41:15;;;;;;;211.60;36.10;;;7.00;82.70;;;;;;5000331;28;20069;-90
2021/12/16 04:43:52;;;;;;;289.10;43.23;;;7.00;82.90;;;;;;5001234;28;20093;-91
2021/12/16 04:46:19;;;;;;;;;;;7.00;83.00;;;;;;5000887;28;20022;-92
2021/12/16 04:48:49;;;;;;;128.57;27.90;;;7.00;83.10;;;;;;5001934;28;19917;-90
2021/12/16 04:51:15;;;;;;;153.30;25.97;;;7.00;82.90;;;;;;4997917;28;20520;-90
2021/12/16 04:53:41;;;;;;;258.43;39.13;;;6.90;83.00;;;;;;4996371;28;20058;-88
2021/12/16 04:56:08;;;;;;;;;;;7.00;83.10;;;;;;4996350;28;20022;-91
2021/12/16 04:58:33;;;;;;;167.23;27.27;;;7.00;83.20;;;;;;4999926;28;19945;-91
2021/12/16 05:00:59;;;;;;;;;;;7.00;83.00;;;;;;5001637;28;20045;-91
2021/12/16 05:03:25;;;;;;;242.40;37.63;;;7.00;83.10;;;;;;4999262;28;19969;-91
2021/12/16 05:05:52;;;;;;;229.47;37.20;;;7.00;83.00;;;;;;5002009;28;20026;-88
2021/12/16 05:08:18;;;;;;;293.90;41.13;;;6.90;83.20;;;;;;4997653;28;20022;-91
2021/12/16 05:10:47;;;;;;;264.20;42.20;;;6.90;83.30;;;;;;4998877;28;20042;-91
2021/12/16 05:13:13;;;;;;;250.83;37.47;;;6.90;83.40;;;;;;4987857;28;20038;-91
2021/12/16 05:15:41;;;;;;;251.30;40.27;;;6.90;83.50;;;;;;4999718;28;20031;-91
2021/12/16 05:18:12;;;;;;;255.97;37.13;;;6.90;83.50;;;;;;4997641;28;20025;-90
2021/12/16 05:20:43;;;;;;;256.27;39.67;;;6.90;83.50;;;;;;4999164;28;20030;-91
2021/12/16 05:28:21;;;;;;;;;;;7.00;83.50;;;;;;5000192;28;20027;-90
2021/12/16 05:30:47;;;;;;;156.95;22.90;;;7.00;83.50;;;;;;4996026;28;19914;-91
2021/12/16 05:33:13;;;;;;;;;;;7.00;83.30;;;;;;5000704;28;20485;-91
2021/12/16 05:35:39;;;;;;;238.17;35.23;;;7.00;83.40;;;;;;5000540;28;19981;-90
2021/12/16 05:38:05;;;;;;;261.37;39.23;;;7.10;83.20;;;;;;4999484;28;20427;-91
2021/12/16 05:40:31;;;;;;;;;;;7.10;83.30;;;;;;5000847;28;20057;-91
2021/12/16 05:43:00;;;;;;;168.40;30.50;;;7.10;83.40;;;;;;4995644;28;19910;-91
2021/12/16 05:45:27;;;;;;;234.23;34.30;;;7.10;83.20;;;;;;4999694;28;20547;-91
2021/12/16 05:47:55;;;;;;;254.13;36.77;;;7.10;83.40;;;;;;4999803;28;20066;-90
2021/12/16 05:50:25;;;;;;;264.00;35.00;;;7.00;83.50;;;;;;4999685;28;20039;-91
2021/12/16 05:52:51;;;;;;;247.90;39.93;;;7.10;83.50;;;;;;5000857;28;20023;-92
2021/12/16 05:55:17;;;;;;;;;;;7.00;83.60;;;;;;5002570;28;20796;-91
2021/12/16 05:57:43;;;;;;;229.50;32.97;;;7.10;83.70;;;;;;5002319;28;19989;-91
2021/12/16 06:00:13;;;;;;;;;;;7.10;83.50;;;;;;5002982;28;20423;-90
2021/12/16 06:02:40;;;;;;;185.27;32.57;;;7.00;83.60;;;;;;5002428;28;19948;-91
2021/12/16 06:05:06;;;;;;;222.18;36.78;;;7.00;83.40;;;;;;4984070;28;20089;-89
2021/12/16 06:07:32;;;;;;;279.80;35.77;;;7.00;83.60;;;;;;5000066;28;20030;-92
2021/12/16 06:09:57;;;;;;;;;;;7.00;83.70;;;;;;5000051;28;20552;-89
2021/12/16 06:12:25;;;;;;;210.00;31.07;;;7.00;83.80;;;;;;4997683;28;19976;-90
2021/12/16 06:28:06;;;;;;;231.75;36.75;;;7.00;83.80;;;;;;4999219;28;20110;-93
2021/12/16 06:30:36;;;;;;;270.90;41.83;;;7.10;83.80;;;;;;4998992;28;20023;-92
2021/12/16 06:33:08;;;;;;;316.97;42.20;;;7.10;83.80;;;;;;5009700;28;20026;-91
2021/12/16 06:35:34;;;;;;;336.87;46.03;;;7.10;83.80;;;;;;5000067;28;20015;-90
2021/12/16 06:38:00;;;;;;;303.97;44.40;;;7.20;83.70;;;;;;4998600;28;20019;-89
2021/12/16 06:40:26;;;;;;;;;;;7.20;83.70;;;;;;5000462;28;20476;-91
2021/12/16 06:42:55;;;;;;;262.17;44.03;;;7.20;83.70;;;;;;4984023;28;19906;-89
2021/12/16 06:45:33;;;;;;;267.63;43.63;;;7.30;83.40;;;;;;4986362;28;20027;-90
2021/12/16 06:48:04;;;;;;;240.50;42.70;;;7.30;83.40;;;;;;4997604;28;20030;-90
2021/12/16 06:53:08;;;;;;;188.65;40.35;;;7.30;83.40;;;;;;5002962;28;20006;-91
2021/12/16 06:55:46;;;;;;;243.40;50.77;;;7.30;83.40;;;;;;5003077;28;20022;-90
2021/12/16 07:00:48;;;;;;;214.87;45.70;;;7.40;83.30;;;;;;4996689;28;20121;-85
2021/12/16 07:03:23;;;;;;;197.85;40.40;;;7.40;83.30;;;;;;4993504;28;20022;-83
2021/12/16 07:05:58;;;;;;;238.00;51.37;;;7.50;83.30;;;;;;4989828;28;20023;-84
2021/12/16 07:08:24;;;;;;;253.70;50.30;;;7.50;83.20;;;;;;4991995;28;20058;-83
2021/12/16 07:10:56;;;;;;;215.57;47.22;;;7.50;83.20;;;;;;4991976;28;20109;-81
2021/12/16 07:13:38;;;;;;;230.93;48.00;;;7.60;83.20;;;;;;4994120;28;20034;-84
2021/12/16 07:16:04;;;;;;;208.82;52.30;;;7.60;83.10;;;;;;4992974;28;20018;-81
2021/12/16 07:18:30;;;;;;;228.33;49.00;;;7.70;83.00;;;;;;4992417;28;20476;-85
2021/12/16 07:20:56;;;;;;;;;;;7.70;83.00;;;;;;4992116;28;20078;-88
2021/12/16 07:23:22;;;;;;;183.37;43.70;;;7.70;83.00;;;;;;4977292;28;19906;-88
2021/12/16 07:25:50;;;;;;;;;;;7.80;82.70;;;;;;4977255;28;20033;-89
2021/12/16 07:28:16;;;;;;;151.65;41.28;;;7.80;82.70;;;;;;4977910;28;20367;-88
2021/12/16 07:30:42;;;;;;;;;;;7.80;82.50;;;;;;4977383;28;20033;-88
2021/12/16 07:33:12;;;;;;;191.17;44.37;;;7.80;82.60;;;;;;4978054;28;19906;-88
2021/12/16 07:35:39;;;;;;;184.15;47.45;;;7.80;82.30;;;;;;4977008;28;20391;-88
2021/12/16 07:38:06;;;;;;;207.60;50.08;;;7.80;82.50;;;;;;4976802;28;20023;-89
2021/12/16 07:40:33;;;;;;;187.80;47.22;;;7.80;82.60;;;;;;4976527;28;20038;-88
2021/12/16 07:45:36;;;;;;;190.17;48.33;;;7.90;82.60;;;;;;4979494;28;20023;-90
2021/12/16 07:48:02;;;;;;;185.40;46.00;;;8.00;82.50;;;;;;4985268;28;20022;-88
2021/12/16 07:50:30;;;;;;;165.98;45.95;;;8.00;82.50;;;;;;4998282;28;20023;-89
2021/12/16 07:52:56;;;;;;;195.63;46.95;;;8.00;82.40;;;;;;4981362;28;20089;-88
2021/12/16 07:55:22;;;;;;;;;;;8.10;82.30;;;;;;4998875;28;20027;-88
2021/12/16 07:57:48;;;;;;;184.50;46.00;;;8.10;82.30;;;;;;4982441;28;19910;-89
2021/12/16 08:00:35;;;;;;;163.27;46.72;;;8.20;82.00;;;;;;4997987;28;20026;-89
2021/12/16 08:03:03;;;;;;;160.10;46.88;;;8.20;82.20;;;;;;4999934;28;20034;-89
2021/12/16 08:05:35;;;;;;;143.52;42.40;;;8.20;82.10;;;;;;5006072;28;20030;-91
2021/12/16 08:08:02;;;;;;;145.20;45.35;;;8.20;82.00;;;;;;5002977;28;20057;-90
2021/12/16 08:10:28;;;;;;;168.27;48.55;;;8.20;82.00;;;;;;4996229;28;20030;-90
2021/12/16 08:12:53;;;;;;;;;;;8.20;82.00;;;;;;4999888;28;20034;-90
2021/12/16 08:15:20;;;;;;;133.30;43.70;;;8.20;82.10;;;;;;5000456;28;19906;-90
2021/12/16 08:17:46;;;;;;;140.15;45.45;;;8.30;81.70;;;;;;5000734;28;20027;-89
2021/12/16 08:20:16;;;;;;;159.35;50.40;;;8.20;81.70;;;;;;5000705;28;20031;-90
2021/12/16 08:22:51;;;;;;;146.75;50.25;;;8.20;81.80;;;;;;5003947;28;20027;-90
2021/12/16 08:25:19;;;;;;;141.98;46.35;;;8.10;81.80;;;;;;5002025;28;20191;-89
2021/12/16 08:27:47;;;;;;;124.65;45.38;;;8.10;81.70;;;;;;5001070;28;20027;-91
2021/12/16 08:30:16;;;;;;;139.57;47.60;;;8.10;81.70;;;;;;5001036;28;20627;-90
2021/12/16 08:32:43;;;;;;;130.40;43.60;;;8.00;81.70;;;;;;5002797;28;20042;-89
2021/12/16 08:35:10;;;;;;;152.45;50.72;;;8.00;81.60;;;;;;5007597;28;20019;-89
2021/12/16 08:37:36;;;;;;;142.30;46.17;;;8.00;81.60;;;;;;5008223;28;20033;-88
2021/12/16 08:40:03;;;;;;;;;;;7.90;81.60;;;;;;5006947;28;20034;-89
2021/12/16 08:42:29;;;;;;;113.60;39.00;;;7.90;81.70;;;;;;5006024;28;19917;-88
2021/12/16 08:44:54;;;;;;;;;;;7.90;81.40;;;;;;5004838;28;20027;-89
2021/12/16 08:47:21;;;;;;;101.22;37.63;;;7.90;81.60;;;;;;5004465;28;19906;-91
2021/12/16 08:49:47;;;;;;;116.20;39.90;;;7.90;81.40;;;;;;5003159;28;20006;-90
2021/12/16 08:52:20;;;;;;;111.70;41.67;;;7.80;81.50;;;;;;5003283;28;20038;-91
2021/12/16 08:54:47;;;;;;;116.05;41.22;;;7.80;81.60;;;;;;5003131;28;20022;-90
2021/12/16 08:57:16;;;;;;;117.18;40.80;;;7.80;81.70;;;;;;5003513;28;20026;-91
2021/12/16 08:59:43;;;;;;;132.60;42.85;;;7.80;81.80;;;;;;5000845;28;20041;-90
2021/12/16 09:02:10;;;;;;;110.32;40.03;;;7.80;81.80;;;;;;5001608;28;20034;-91
2021/12/16 09:04:39;;;;;;;118.78;42.85;;;7.80;81.70;;;;;;5001953;28;20026;-90
2021/12/16 09:07:08;;;;;;;113.25;40.60;;;7.80;81.70;;;;;;5002426;28;20018;-91
2021/12/16 09:09:38;;;;;;;112.85;41.17;;;7.90;81.70;;;;;;5002443;28;20434;-90
2021/12/16 09:12:12;;;;;;;103.53;37.88;;;7.90;81.70;;;;;;5002361;28;20030;-90
2021/12/16 09:14:40;;;;;;;102.28;38.38;;;7.90;81.70;;;;;;5002158;28;20027;-91
2021/12/16 09:17:10;;;;;;;97.38;39.50;;;7.90;81.60;;;;;;5002101;28;20115;-90
2021/12/16 09:19:46;;;;;;;99.35;40.28;;;8.00;81.60;;;;;;5001887;28;20033;-91
2021/12/16 09:22:15;;;;;;;103.72;38.58;;;8.00;81.50;;;;;;5001917;28;20033;-90
2021/12/16 09:24:41;;;;;;;92.53;38.13;;;8.10;81.50;;;;;;5000126;28;20026;-90
2021/12/16 09:27:07;;;;;;;;;;;8.10;81.40;;;;;;4996285;28;20026;-86
2021/12/16 09:29:33;;;;;;;100.05;39.15;;;8.10;81.40;;;;;;4977898;28;19924;-87
2021/12/16 09:32:00;;;;;;;;;;;8.10;81.00;;;;;;4980483;28;20093;-87
2021/12/16 09:34:25;;;;;;;74.70;30.95;;;8.10;81.20;;;;;;4981002;28;19906;-87
2021/12/16 09:36:51;;;;;;;;;;;8.10;80.90;;;;;;4980141;28;20026;-87
2021/12/16 09:39:21;;;;;;;70.15;29.23;;;8.10;81.10;;;;;;4979828;28;20398;-87
2021/12/16 09:41:48;;;;;;;69.80;30.45;;;8.10;80.90;;;;;;4979472;28;20061;-87
2021/12/16 09:44:16;;;;;;;75.82;30.30;;;8.10;81.00;;;;;;4979689;28;20038;-86
2021/12/16 09:46:47;;;;;;;63.80;26.98;;;8.10;81.00;;;;;;4979004;28;20034;-86
2021/12/16 09:49:13;;;;;;;101.68;39.45;;;8.10;81.00;;;;;;4978600;28;20023;-87
2021/12/16 09:51:43;;;;;;;;;;;8.10;81.00;;;;;;4978562;28;20038;-85
2021/12/16 09:54:19;;;;;;;86.30;32.17;;;8.20;81.00;;;;;;4977084;28;20395;-85
2021/12/16 09:56:46;;;;;;;77.33;34.43;;;8.20;80.80;;;;;;4977409;28;20023;-86
2021/12/16 09:59:14;;;;;;;71.22;30.83;;;8.30;80.80;;;;;;4979428;28;20266;-86
2021/12/16 10:01:43;;;;;;;64.68;29.73;;;8.30;80.80;;;;;;4979972;28;20027;-86
2021/12/16 10:04:13;;;;;;;66.25;30.98;;;8.40;80.70;;;;;;4978068;28;20034;-86
2021/12/16 10:06:39;;;;;;;74.32;34.75;;;8.40;80.50;;;;;;4978592;28;20118;-85
2021/12/16 10:09:08;;;;;;;80.95;35.97;;;8.50;80.40;;;;;;4978595;28;20034;-87
2021/12/16 10:11:35;;;;;;;82.28;35.42;;;8.60;80.30;;;;;;4978839;28;20561;-87
2021/12/16 10:19:16;;;;;;;63.80;28.67;;;8.80;79.80;;;;;;4979224;28;20116;-86
2021/12/16 10:21:43;;;;;;;51.25;23.30;;;8.80;79.60;;;;;;4978320;28;20436;-86
2021/12/16 10:24:31;;;;;;;67.00;31.98;;;8.80;79.30;;;;;;4978666;28;20121;-85
2021/12/16 10:27:10;;;;;;;61.03;28.45;;;8.70;79.30;;;;;;4978502;28;20182;-86
2021/12/16 10:30:06;;;;;;;57.65;25.80;;;8.70;79.30;;;;;;4977711;28;20486;-84
2021/12/16 10:32:42;;;;;;;47.05;23.13;;;8.70;79.40;;;;;;4988279;28;20046;-85
2021/12/16 10:35:13;;;;;;;;;;;8.70;79.20;;;;;;4976984;28;20019;-86
2021/12/16 10:37:45;;;;;;;57.03;24.23;;;8.80;79.30;;;;;;4977488;28;19906;-86
2021/12/16 10:40:34;;;;;;;74.88;34.92;;;8.80;79.10;;;;;;4976642;28;20144;-87
2021/12/16 10:43:09;;;;;;;76.55;36.42;;;8.80;79.10;;;;;;4977828;28;20033;-87
2021/12/16 10:45:43;;;;;;;53.83;24.73;;;8.80;79.10;;;;;;4977630;28;20019;-86
2021/12/16 10:48:39;;;;;;;73.50;34.38;;;8.80;79.10;;;;;;4993938;28;20454;-87
2021/12/16 10:51:23;;;;;;;42.83;17.38;;;8.80;79.20;;;;;;4972822;28;20094;-87
2021/12/16 10:53:57;;;;;;;75.95;36.92;;;8.90;78.80;;;;;;4978696;28;20073;-87
2021/12/16 10:56:34;;;;;;;55.55;25.33;;;8.80;78.90;;;;;;4977252;28;20511;-86
2021/12/16 10:59:00;;;;;;;72.43;35.47;;;8.80;79.10;;;;;;4977229;28;20483;-87
2021/12/16 11:01:34;;;;;;;;;;;8.80;79.10;;;;;;4978031;28;20027;-87
2021/12/16 11:04:01;;;;;;;77.78;35.38;;;8.80;79.10;;;;;;4977092;28;19914;-86
2021/12/16 11:06:35;;;;;;;70.10;31.92;;;8.80;79.00;;;;;;4976923;28;20022;-87
2021/12/16 11:09:28;;;;;;;41.70;16.48;;;8.80;79.30;;;;;;4978214;28;20054;-86
2021/12/16 11:12:25;;;;;;;62.75;27.98;;;8.70;79.50;;;;;;4987587;28;20373;-85
2021/12/16 11:14:55;;;;;;;69.38;28.52;;;8.70;79.60;;;;;;4994730;28;20030;-87
2021/12/16 11:17:24;;;;;;;65.78;27.58;;;8.70;79.70;;;;;;4996012;28;20356;-86
2021/12/16 11:20:16;;;;;;;73.55;33.03;;;8.60;79.80;;;;;;4994872;28;20068;-86
2021/12/16 11:22:42;;;;;;;73.93;34.65;;;8.60;80.10;;;;;;4994848;28;20018;-85
2021/12/16 11:25:13;;;;;;;;;;;8.60;80.20;;;;;;4995054;28;20030;-86
2021/12/16 11:27:39;;;;;;;67.35;30.58;;;8.60;80.30;;;;;;4994453;28;19912;-85
2021/12/16 11:30:19;;;;;;;75.75;31.48;;;8.60;80.20;;;;;;4994402;28;20065;-86
2021/12/16 11:32:47;;;;;;;69.35;31.30;;;8.60;80.30;;;;;;4994981;28;20030;-85
2021/12/16 11:35:37;;;;;;;77.53;33.60;;;8.60;80.40;;;;;;4994179;28;20034;-86
2021/12/16 11:38:14;;;;;;;50.63;24.63;;;8.60;80.60;;;;;;4996051;28;20069;-87
2021/12/16 11:40:58;;;;;;;53.97;26.02;;;8.60;80.50;;;;;;4997621;28;20042;-88
2021/12/16 11:43:44;;;;;;;55.90;26.92;;;8.60;80.60;;;;;;4996114;28;20101;-89
2021/12/16 11:46:39;;;;;;;56.05;27.60;;;8.60;80.60;;;;;;4995936;28;20085;-89
2021/12/16 11:49:22;;;;;;;61.63;29.35;;;8.70;80.50;;;;;;4998984;28;20089;-89
2021/12/16 11:51:59;;;;;;;60.95;27.48;;;8.70;80.60;;;;;;4999364;28;20047;-90
2021/12/16 11:54:34;;;;;;;62.63;29.15;;;8.70;80.50;;;;;;4999605;28;20046;-87
2021/12/16 11:57:05;;;;;;;58.88;27.65;;;8.70;80.60;;;;;;4999177;28;20030;-89
2021/12/16 11:59:39;;;;;;;51.00;21.92;;;8.80;80.60;;;;;;4999435;28;20140;-89
2021/12/16 12:02:17;;;;;;;48.15;22.17;;;8.80;80.50;;;;;;5000030;28;20034;-89
2021/12/16 12:04:43;;;;;;;50.75;22.88;;;8.80;80.50;;;;;;5003135;28;20026;-88
2021/12/16 12:07:13;;;;;;;;;;;8.80;80.50;;;;;;5005253;28;20027;-89
2021/12/16 12:09:46;;;;;;;51.00;22.30;;;8.80;80.50;;;;;;5002347;28;19906;-87
2021/12/16 12:12:13;;;;;;;56.88;27.58;;;8.80;80.20;;;;;;5002048;28;20495;-89
2021/12/16 12:14:44;;;;;;;57.92;28.02;;;8.80;80.30;;;;;;5001693;28;20029;-89
2021/12/16 12:17:17;;;;;;;61.47;28.25;;;8.80;80.40;;;;;;5003647;28;20053;-90
2021/12/16 12:19:50;;;;;;;53.22;26.50;;;8.80;80.40;;;;;;5002898;28;20023;-88
2021/12/16 12:22:20;;;;;;;59.13;28.95;;;8.80;80.50;;;;;;5002363;28;20186;-90
2021/12/16 12:24:49;;;;;;;55.03;24.50;;;8.70;80.40;;;;;;5003239;28;20124;-89
2021/12/16 12:27:22;;;;;;;59.45;27.45;;;8.80;80.50;;;;;;5003849;28;20039;-90
2021/12/16 12:29:51;;;;;;;51.60;23.95;;;8.70;80.50;;;;;;5001996;28;20045;-89
2021/12/16 12:32:22;;;;;;;49.92;24.35;;;8.70;80.50;;;;;;5000515;28;20518;-88
2021/12/16 12:34:56;;;;;;;56.05;27.15;;;8.70;80.60;;;;;;4999711;28;20026;-88
2021/12/16 12:37:24;;;;;;;54.25;24.33;;;8.70;80.50;;;;;;5000261;28;20026;-89
2021/12/16 12:39:57;;;;;;;51.85;24.88;;;8.80;80.50;;;;;;5001015;28;20022;-88
2021/12/16 12:42:23;;;;;;;57.95;27.17;;;8.70;80.50;;;;;;4999442;28;20037;-88
2021/12/16 12:44:48;;;;;;;;;;;8.70;80.50;;;;;;5000109;28;20441;-88
2021/12/16 12:47:19;;;;;;;57.97;28.17;;;8.70;80.50;;;;;;5000095;28;20376;-87
2021/12/16 12:49:45;;;;;;;53.80;28.30;;;8.70;80.30;;;;;;4999188;28;20061;-89
2021/12/16 12:52:13;;;;;;;47.25;23.63;;;8.80;80.40;;;;;;5000279;28;20053;-87
2021/12/16 12:54:42;;;;;;;55.05;27.17;;;8.70;80.50;;;;;;5000211;28;20092;-88
2021/12/16 12:57:30;;;;;;;58.60;28.05;;;8.70;80.40;;;;;;4999131;28;20037;-87
2021/12/16 12:59:58;;;;;;;45.05;21.33;;;8.70;80.50;;;;;;4995756;28;20027;-87
2021/12/16 13:02:37;;;;;;;58.65;29.15;;;8.70;80.50;;;;;;4980350;28;20043;-87
2021/12/16 13:05:20;;;;;;;49.00;22.63;;;8.80;80.50;;;;;;4979219;28;20034;-88
2021/12/16 13:07:58;;;;;;;50.72;24.17;;;8.80;80.50;;;;;;4980409;28;20029;-87
2021/12/16 13:10:32;;;;;;;56.53;27.05;;;8.70;80.40;;;;;;4997467;28;20019;-85
2021/12/16 13:13:30;;;;;;;54.38;27.35;;;8.80;80.40;;;;;;4997128;28;20034;-88
2021/12/16 13:27:41;;;;;;;62.08;29.77;;;8.80;80.20;;;;;;4999021;28;20137;-88
2021/12/16 13:32:45;;;;;;;49.92;25.35;;;8.70;80.30;;;;;;5000298;28;20030;-88
2021/12/16 13:37:48;;;;;;;56.72;27.75;;;8.70;80.40;;;;;;4998423;28;20037;-87
2021/12/16 13:40:19;;;;;;;55.42;26.88;;;8.70;80.50;;;;;;4996689;28;20050;-87
2021/12/16 13:42:54;;;;;;;45.88;21.75;;;8.70;80.50;;;;;;4996544;28;20030;-88
2021/12/16 13:45:26;;;;;;;61.22;28.40;;;8.70;80.50;;;;;;4996725;28;20026;-87
2021/12/16 14:03:05;;;;;;;34.25;15.65;;;8.60;80.90;;;;;;4998554;28;20522;-86
2021/12/16 14:06:12;;;;;;;54.95;26.55;;;8.60;80.80;;;;;;4996630;28;20046;-86
2021/12/16 14:08:41;;;;;;;55.83;27.25;;;8.50;81.00;;;;;;4994821;28;20437;-86
2021/12/16 14:12:57;;;;;;;48.17;23.88;;;8.60;80.90;;;;;;4995345;28;20030;-85
2021/12/16 14:15:09;;;;;;;52.60;26.65;;;8.60;81.10;;;;;;4994475;28;20034;-86
2021/12/16 14:23:20;;;;;;;51.28;26.65;;;8.50;81.10;;;;;;4991791;28;20112;-86
2021/12/16 14:37:17;;;;;;;51.33;25.45;;;8.50;81.40;;;;;;4997569;28;20419;-87
2021/12/16 14:45:43;;;;;;;49.60;23.95;;;8.50;81.50;;;;;;4997187;28;20042;-86
2021/12/16 14:50:52;;;;;;;43.90;22.05;;;8.50;81.50;;;;;;4996582;28;20093;-86
2021/12/16 14:53:26;;;;;;;44.42;21.15;;;8.50;81.50;;;;;;4995846;28;20018;-86
2021/12/16 14:55:55;;;;;;;50.47;24.75;;;8.50;81.60;;;;;;4995344;28;20411;-85
2021/12/16 14:58:23;;;;;;;53.25;24.88;;;8.50;81.60;;;;;;4991872;28;20057;-86
2021/12/16 15:00:55;;;;;;;60.40;28.27;;;8.40;81.70;;;;;;4978707;28;20019;-86
2021/12/16 15:03:28;;;;;;;51.65;24.83;;;8.40;81.80;;;;;;4991807;28;20040;-85
2021/12/16 15:05:57;;;;;;;67.25;32.03;;;8.40;81.80;;;;;;4995701;28;20022;-86
2021/12/16 15:08:32;;;;;;;65.15;31.33;;;8.40;81.80;;;;;;4996067;28;20034;-86
2021/12/16 15:11:00;;;;;;;54.50;26.20;;;8.40;81.90;;;;;;4995670;28;20046;-87
2021/12/16 15:13:32;;;;;;;67.10;30.58;;;8.40;81.90;;;;;;4995273;28;20067;-85
2021/12/16 15:45:31;;;;;;;60.13;30.23;;;8.40;82.30;;;;;;4998709;28;20031;-86
2021/12/16 15:48:04;;;;;;;55.95;27.67;;;8.50;82.20;;;;;;4990577;28;20026;-86
2021/12/16 15:50:34;;;;;;;49.20;25.10;;;8.50;82.20;;;;;;4997761;28;20056;-87
2021/12/16 15:53:06;;;;;;;50.53;25.45;;;8.50;82.20;;;;;;4997900;28;20479;-87
2021/12/16 15:55:40;;;;;;;50.75;24.67;;;8.50;82.20;;;;;;4996986;28;20027;-86
2021/12/16 15:58:12;;;;;;;52.65;25.05;;;8.40;82.10;;;;;;4998530;28;20023;-86
2021/12/16 16:00:42;;;;;;;53.92;26.77;;;8.50;82.10;;;;;;4995812;28;20019;-86
2021/12/16 16:03:11;;;;;;;54.95;25.38;;;8.50;82.10;;;;;;4997180;28;20022;-85
2021/12/16 16:05:42;;;;;;;32.17;15.63;;;8.50;82.20;;;;;;4993391;28;20472;-87
2021/12/16 16:08:12;;;;;;;47.50;24.23;;;8.50;82.20;;;;;;4998697;28;20559;-87
2021/12/16 16:10:41;;;;;;;49.40;21.77;;;8.50;82.10;;;;;;4996957;28;20019;-86
2021/12/16 16:13:12;;;;;;;42.53;21.55;;;8.60;82.20;;;;;;4997004;28;20026;-88
2021/12/16 16:15:39;;;;;;;53.03;25.30;;;8.50;82.10;;;;;;4997838;28;20058;-85
2021/12/16 16:18:15;;;;;;;51.88;24.60;;;8.50;82.10;;;;;;5000497;28;20030;-83
2021/12/16 16:20:47;;;;;;;46.58;24.00;;;8.60;82.10;;;;;;4997686;28;20030;-83
2021/12/16 16:23:15;;;;;;;59.65;29.02;;;8.50;82.10;;;;;;4996546;28;20544;-86
2021/12/16 16:25:41;;;;;;;55.30;27.02;;;8.60;82.00;;;;;;4996779;28;20108;-85
2021/12/16 16:28:08;;;;;;;57.97;27.35;;;8.50;82.00;;;;;;4996919;28;20033;-87
2021/12/16 16:31:32;;;;;;;;;;;;;;;;;;;;;
2021/12/16 16:33:59;;;;;;;39.88;19.20;;;8.50;82.20;;;;;;4957982;28;20029;-86
2021/12/16 16:36:26;;;;;;;50.80;25.23;;;8.60;81.90;;;;;;4995559;28;20392;-86
2021/12/16 16:39:09;;;;;;;43.58;20.95;;;8.50;81.90;;;;;;4998906;28;20106;-84
2021/12/16 16:41:44;;;;;;;46.10;24.83;;;8.50;82.00;;;;;;4990561;28;20447;-86
2021/12/16 16:44:14;;;;;;;58.93;29.47;;;8.50;82.00;;;;;;4998170;28;20061;-86
2021/12/16 16:47:01;;;;;;;58.08;28.90;;;8.60;82.00;;;;;;4993836;28;20031;-86
2021/12/16 16:49:45;;;;;;;63.13;29.90;;;8.60;82.00;;;;;;5009741;28;20030;-86
2021/12/16 16:52:13;;;;;;;36.08;17.98;;;8.60;81.90;;;;;;5013380;28;20026;-89
2021/12/16 16:54:44;;;;;;;36.63;19.17;;;8.60;81.80;;;;;;4999501;28;20026;-87
2021/12/16 16:57:16;;;;;;;27.98;14.15;;;8.60;81.80;;;;;;4998244;28;20472;-89
2021/12/16 16:59:49;;;;;;;23.10;11.68;;;8.60;81.70;;;;;;4996447;28;20018;-83
2021/12/16 17:02:41;;;;;;;28.83;16.85;;;8.70;81.60;;;;;;4991932;28;20990;-83
2021/12/16 17:05:32;;;;;;;29.52;15.95;;;8.60;81.60;;;;;;4995821;28;20098;-83
2021/12/16 17:08:10;;;;;;;30.55;16.75;;;8.60;81.60;;;;;;4976815;28;20062;-83
2021/12/16 17:11:00;;;;;;;29.48;15.35;;;8.60;81.40;;;;;;4995002;28;20058;-84